Time;durP1;ratioP1;P1;durP2;ratioP2;P2;SDS_P1;SDS_P2;PMS_P1;PMS_P2;Temp;Humidity;BMP_temperature;BMP_pressure;BME280_temperature;BME280_humidity;BME280_pressure;Samples;Min_cycle;Max_cycle;Signal;HPM_P1;HPM_P2
2022/01/11 00:01:18;;;;;;;21.90;6.82;;;;;;;0.75;88.93;101667.69;4900506;29;20028;-77
2022/01/11 00:03:44;;;;;;;20.55;6.78;;;;;;;0.79;88.71;101662.06;4900798;29;20039;-77
2022/01/11 00:06:26;;;;;;;;;;;;;;;0.75;88.27;101667.69;4900877;29;20032;-77
2022/01/11 00:08:54;;;;;;;18.42;6.25;;;;;;;0.72;88.41;101671.41;4900818;29;20372;-77
2022/01/11 00:11:19;;;;;;;20.63;6.47;;;;;;;0.54;87.29;101667.44;4900587;29;20033;-77
2022/01/11 00:13:44;;;;;;;17.42;6.93;;;;;;;0.31;87.19;101669.09;4900493;29;20036;-77
2022/01/11 00:16:13;;;;;;;20.88;6.72;;;;;;;0.02;88.19;101672.91;4900616;29;20519;-77
2022/01/11 00:18:39;;;;;;;14.07;6.07;;;;;;;-0.04;88.40;101682.16;4883626;29;20111;-77
2022/01/11 00:21:07;;;;;;;18.80;8.07;;;;;;;-0.06;88.17;101678.75;4883444;29;20093;-77
2022/01/11 00:25:59;;;;;;;18.95;7.22;;;;;;;-0.40;89.24;101678.41;4899889;29;20109;-77
2022/01/11 00:28:26;;;;;;;20.05;6.47;;;;;;;-0.44;89.59;101682.22;4900819;29;20120;-78
2022/01/11 00:30:53;;;;;;;21.40;7.32;;;;;;;-0.55;89.64;101679.47;4882817;29;20123;-77
2022/01/11 00:33:31;;;;;;;17.00;7.40;;;;;;;-0.53;89.13;101684.63;4882719;29;20033;-78
2022/01/11 00:36:00;;;;;;;16.42;7.50;;;;;;;-0.71;89.91;101682.25;4899788;29;20032;-77
2022/01/11 00:38:49;;;;;;;21.58;7.15;;;;;;;-0.71;90.29;101676.94;4899843;29;20365;-77
2022/01/11 00:41:15;;;;;;;20.67;7.25;;;;;;;-0.67;90.53;101688.19;4875191;29;20399;-78
2022/01/11 00:43:41;;;;;;;17.58;7.35;;;;;;;-0.60;90.03;101688.66;4899625;29;20033;-77
2022/01/11 00:46:07;;;;;;;;;;;;;;;-0.76;89.89;101683.53;4899786;29;20032;-77
2022/01/11 00:48:35;;;;;;;19.17;6.32;;;;;;;-0.81;90.25;101682.97;4899259;29;20426;-77
2022/01/11 00:51:01;;;;;;;21.15;7.55;;;;;;;-0.80;90.23;101684.66;4899411;29;20032;-78
2022/01/11 00:53:26;;;;;;;16.90;6.38;;;;;;;-0.99;90.06;101684.16;4881393;29;20476;-78
2022/01/11 00:55:52;;;;;;;14.48;6.03;;;;;;;-1.04;90.06;101684.47;4898965;29;20036;-78
2022/01/11 00:58:19;;;;;;;19.77;7.15;;;;;;;-1.10;90.30;101692.81;4899404;29;20052;-77
2022/01/11 01:00:47;;;;;;;20.42;7.00;;;;;;;-1.08;90.31;101677.69;4882885;29;20040;-77
2022/01/11 01:03:14;;;;;;;18.90;6.55;;;;;;;-1.07;90.51;101685.50;4900928;29;20028;-77
2022/01/11 01:05:40;;;;;;;15.38;5.60;;;;;;;-1.03;90.11;101677.38;4902106;29;20039;-77
2022/01/11 01:08:06;;;;;;;15.77;5.72;;;;;;;-0.91;89.74;101679.25;4899692;29;20059;-76
2022/01/11 01:10:39;;;;;;;14.98;5.85;;;;;;;-0.91;89.35;101682.75;4899578;29;20036;-76
2022/01/11 01:13:13;;;;;;;13.50;6.28;;;;;;;-0.77;89.26;101690.63;4882473;29;20097;-77
2022/01/11 01:15:40;;;;;;;17.02;5.82;;;;;;;-0.75;88.96;101690.50;4898541;29;20476;-77
2022/01/11 01:18:05;;;;;;;21.20;7.15;;;;;;;-0.84;88.48;101691.09;4882147;29;20040;-77
2022/01/11 01:20:31;;;;;;;14.60;5.47;;;;;;;-0.87;88.16;101701.88;4899048;29;20039;-77
2022/01/11 01:22:57;;;;;;;19.08;5.75;;;;;;;-0.98;89.20;101701.75;4898866;29;20040;-77
2022/01/11 01:25:23;;;;;;;16.38;6.63;;;;;;;-0.97;89.64;101703.44;4898564;29;20388;-77
2022/01/11 01:27:51;;;;;;;15.25;6.35;;;;;;;-0.87;89.30;101699.22;4899659;29;20520;-76
2022/01/11 01:30:17;;;;;;;12.38;5.47;;;;;;;-0.89;89.28;101711.72;4900485;29;20032;-77
2022/01/11 01:32:49;;;;;;;18.23;5.68;;;;;;;-0.82;88.26;101713.88;4901472;29;20122;-77
2022/01/11 01:35:32;;;;;;;14.23;6.13;;;;;;;-0.58;88.48;101718.50;4900959;29;20044;-77
2022/01/11 01:37:58;;;;;;;18.23;5.90;;;;;;;-0.77;88.13;101724.16;4883694;29;20037;-77
2022/01/11 01:40:26;;;;;;;15.95;5.63;;;;;;;-0.83;88.56;101721.91;4899308;29;20028;-77
2022/01/11 01:42:51;;;;;;;14.98;6.40;;;;;;;-0.83;89.05;101722.75;4898758;29;20068;-77
2022/01/11 01:45:19;;;;;;;12.38;5.75;;;;;;;-0.77;89.27;101721.53;4898553;29;20083;-77
2022/01/11 01:47:44;;;;;;;9.40;4.65;;;;;;;-0.65;89.02;101730.44;4898740;29;20029;-78
2022/01/11 01:50:10;;;;;;;13.57;4.65;;;;;;;-0.47;88.55;101730.06;4898714;29;20039;-78
2022/01/11 01:52:36;;;;;;;13.73;4.63;;;;;;;-0.33;88.26;101728.28;4898552;29;20604;-78
2022/01/11 01:55:04;;;;;;;12.77;4.38;;;;;;;-0.31;88.31;101729.91;4898499;29;20123;-77
2022/01/11 01:57:29;;;;;;;9.13;4.05;;;;;;;-0.25;88.05;101731.28;4898626;29;20036;-77
2022/01/11 01:59:55;;;;;;;12.00;4.60;;;;;;;-0.14;87.10;101737.56;4900108;29;20060;-78
2022/01/11 02:02:20;;;;;;;8.63;4.28;;;;;;;0.00;86.64;101736.63;4900028;29;20089;-78
2022/01/11 02:04:48;;;;;;;12.18;4.20;;;;;;;0.09;85.91;101737.78;4899349;29;20472;-78
2022/01/11 02:07:13;;;;;;;11.77;4.68;;;;;;;0.16;85.39;101733.78;4899248;29;20052;-76
2022/01/11 02:09:40;;;;;;;11.48;5.47;;;;;;;0.23;85.49;101742.97;4897783;29;20025;-77
2022/01/11 02:12:06;;;;;;;13.70;5.15;;;;;;;0.21;85.25;101745.75;4898321;29;20036;-77
2022/01/11 02:14:33;;;;;;;10.05;4.00;;;;;;;0.18;85.17;101740.66;4897769;29;20130;-76
2022/01/11 02:17:00;;;;;;;12.82;4.40;;;;;;;0.12;84.81;101749.03;4897741;29;20369;-77
2022/01/11 02:19:26;;;;;;;13.88;5.03;;;;;;;0.04;84.94;101745.19;4898187;29;20140;-76
2022/01/11 02:21:52;;;;;;;;;;;;;;;-0.05;84.90;101757.28;4898514;29;20466;-76
2022/01/11 02:24:18;;;;;;;10.75;4.35;;;;;;;-0.14;85.37;101758.75;4897708;29;19962;-77
2022/01/11 02:26:44;;;;;;;13.60;4.40;;;;;;;-0.24;85.49;101751.53;4897763;29;20127;-77
2022/01/11 02:29:09;;;;;;;14.80;4.15;;;;;;;-0.35;86.09;101750.44;4897870;29;20165;-77
2022/01/11 02:31:38;;;;;;;16.30;5.82;;;;;;;-0.42;86.39;101751.81;4898727;29;20039;-77
2022/01/11 02:34:04;;;;;;;12.20;4.53;;;;;;;-0.51;86.47;101754.19;4899181;29;20115;-77
2022/01/11 02:36:33;;;;;;;11.23;5.00;;;;;;;-0.55;86.77;101753.56;4881208;29;20444;-77
2022/01/11 02:38:59;;;;;;;16.67;4.82;;;;;;;-0.63;86.80;101762.97;4880894;29;20043;-77
2022/01/11 02:41:27;;;;;;;10.55;4.53;;;;;;;-0.67;86.92;101759.66;4897711;29;20040;-77
2022/01/11 02:43:54;;;;;;;14.27;4.63;;;;;;;-0.70;87.30;101763.34;4880989;29;20037;-76
2022/01/11 02:46:21;;;;;;;14.10;4.97;;;;;;;-0.72;87.48;101761.78;4897527;29;20087;-77
2022/01/11 02:48:47;;;;;;;15.00;6.30;;;;;;;-0.73;87.12;101766.22;4897671;29;20460;-76
2022/01/11 02:51:12;;;;;;;14.23;5.28;;;;;;;-0.68;87.14;101762.41;4898029;29;20428;-77
2022/01/11 02:53:43;;;;;;;12.57;4.78;;;;;;;-0.64;87.63;101762.09;4880850;29;20039;-77
2022/01/11 02:56:08;;;;;;;13.20;5.05;;;;;;;-0.58;87.35;101764.38;4880895;29;20049;-76
2022/01/11 02:58:34;;;;;;;11.40;5.15;;;;;;;-0.62;86.97;101765.50;4881053;29;20041;-77
2022/01/11 03:00:59;;;;;;;16.10;5.32;;;;;;;-0.63;86.70;101757.66;4882027;29;20148;-77
2022/01/11 03:03:25;;;;;;;11.25;5.70;;;;;;;-0.55;86.38;101758.88;4898412;29;20051;-77
2022/01/11 03:05:55;;;;;;;10.07;4.78;;;;;;;-0.47;85.87;101750.41;4897836;29;20159;-77
2022/01/11 03:08:22;;;;;;;13.25;4.40;;;;;;;-0.61;86.48;101759.25;4880161;29;20048;-76
2022/01/11 03:10:49;;;;;;;13.40;4.45;;;;;;;-0.67;86.45;101761.44;4897693;29;20051;-77
2022/01/11 03:13:18;;;;;;;13.60;4.20;;;;;;;-0.67;86.75;101762.31;4880355;29;20392;-77
2022/01/11 03:15:45;;;;;;;11.20;4.28;;;;;;;-0.81;86.44;101767.66;4897967;29;20527;-78
2022/01/11 03:18:11;;;;;;;15.43;5.15;;;;;;;-0.92;87.85;101759.56;4884202;29;20036;-76
2022/01/11 03:20:37;;;;;;;;;;;;;;;-0.95;87.45;101762.41;4884073;29;20549;-77
2022/01/11 03:23:03;;;;;;;9.77;4.10;;;;;;;-1.04;87.00;101763.81;4901310;29;19915;-77
2022/01/11 03:25:29;;;;;;;11.57;5.00;;;;;;;-1.08;86.89;101771.13;4902016;29;20388;-77
2022/01/11 03:27:55;;;;;;;13.20;4.72;;;;;;;-1.16;87.19;101772.53;4901170;29;20044;-78
2022/01/11 03:30:20;;;;;;;12.38;3.72;;;;;;;-1.20;87.55;101765.75;4901127;29;20043;-76
2022/01/11 03:32:46;;;;;;;12.77;4.63;;;;;;;-1.30;87.50;101768.13;4900888;29;20048;-77
2022/01/11 03:35:13;;;;;;;12.65;4.82;;;;;;;-1.40;87.91;101773.13;4900528;29;20037;-77
2022/01/11 03:37:41;;;;;;;11.50;4.32;;;;;;;-1.33;87.76;101781.53;4900740;29;20081;-77
2022/01/11 03:40:12;;;;;;;9.32;3.88;;;;;;;-1.41;87.91;101783.78;4900729;29;20033;-77
2022/01/11 03:42:38;;;;;;;11.75;5.22;;;;;;;-1.37;87.70;101780.00;4883557;29;20120;-76
2022/01/11 03:45:05;;;;;;;26.52;5.53;;;;;;;-1.30;87.46;101789.28;4900753;29;20036;-77
2022/01/11 03:47:31;;;;;;;17.00;4.57;;;;;;;-1.34;87.55;101790.41;4900577;29;20043;-76
2022/01/11 03:49:56;;;;;;;10.15;4.97;;;;;;;-1.38;87.92;101791.53;4900569;29;20029;-77
2022/01/11 03:52:22;;;;;;;11.75;4.68;;;;;;;-1.33;88.04;101789.47;4900942;29;20388;-77
2022/01/11 03:57:16;;;;;;;11.05;4.43;;;;;;;-1.21;87.87;101798.41;4901640;29;20044;-77
2022/01/11 03:59:42;;;;;;;10.55;4.18;;;;;;;-1.12;87.76;101782.84;4902075;29;20096;-77
2022/01/11 04:02:08;;;;;;;10.15;3.88;;;;;;;-1.03;87.15;101791.13;4901124;29;20126;-77
2022/01/11 04:04:42;;;;;;;12.43;4.78;;;;;;;-1.01;87.09;101794.53;4900926;29;20044;-77
2022/01/11 04:07:08;;;;;;;15.05;5.15;;;;;;;-0.99;86.52;101796.13;4883150;29;20075;-77
2022/01/11 04:09:43;;;;;;;9.02;4.20;;;;;;;-1.01;86.85;101792.72;4901177;29;20469;-78
2022/01/11 04:12:09;;;;;;;12.95;4.20;;;;;;;-1.00;86.90;101798.88;4900003;29;20044;-76
2022/01/11 04:14:34;;;;;;;9.60;4.13;;;;;;;-1.05;86.72;101801.78;4899569;29;20033;-75
2022/01/11 04:16:59;;;;;;;14.18;4.93;;;;;;;-1.15;86.89;101811.28;4899889;29;20111;-74
2022/01/11 04:19:25;;;;;;;10.48;4.07;;;;;;;-1.09;86.94;101806.47;4899610;29;20040;-75
2022/01/11 04:21:50;;;;;;;9.55;3.97;;;;;;;-1.15;86.51;101805.97;4900060;29;20045;-75
2022/01/11 04:24:15;;;;;;;10.10;4.32;;;;;;;-1.30;86.80;101809.59;4899454;29;20119;-75
2022/01/11 04:26:41;;;;;;;10.10;3.45;;;;;;;-1.29;87.24;101808.63;4882850;29;20037;-74
2022/01/11 04:29:06;;;;;;;10.88;4.10;;;;;;;-1.24;87.56;101804.75;4899216;29;20064;-74
2022/01/11 04:31:32;;;;;;;9.43;3.58;;;;;;;-1.29;87.26;101812.13;4899631;29;20524;-74
2022/01/11 04:33:58;;;;;;;13.75;5.38;;;;;;;-1.40;87.21;101811.91;4899587;29;20120;-75
2022/01/11 04:36:24;;;;;;;14.32;5.03;;;;;;;-1.69;88.26;101808.41;4899371;29;20048;-75
2022/01/11 04:38:50;;;;;;;10.77;4.32;;;;;;;-1.94;89.61;101806.38;4899522;29;20028;-75
2022/01/11 04:41:15;;;;;;;17.48;5.82;;;;;;;-2.18;90.08;101811.34;4899328;29;20360;-74
2022/01/11 04:43:41;;;;;;;12.13;3.92;;;;;;;-2.34;91.36;101810.53;4899952;29;20036;-74
2022/01/11 04:46:06;;;;;;;17.83;5.22;;;;;;;-2.40;91.83;101810.88;4899693;29;20352;-75
2022/01/11 04:48:32;;;;;;;10.73;4.28;;;;;;;-2.42;92.67;101810.09;4899587;29;20048;-75
2022/01/11 04:51:00;;;;;;;16.58;5.82;;;;;;;-2.38;92.83;101810.78;4883052;29;20183;-75
2022/01/11 04:53:26;;;;;;;13.43;5.13;;;;;;;-2.36;92.44;101811.53;4882608;29;20079;-75
2022/01/11 04:55:51;;;;;;;18.60;5.95;;;;;;;-2.38;92.27;101810.78;4899650;29;20081;-76
2022/01/11 04:58:18;;;;;;;12.63;4.40;;;;;;;-2.37;92.63;101813.34;4899340;29;20196;-76
2022/01/11 05:00:43;;;;;;;16.15;6.13;;;;;;;-2.30;92.90;101804.09;4882956;29;20111;-75
2022/01/11 05:03:09;;;;;;;15.43;5.32;;;;;;;-2.22;92.51;101816.88;4899476;29;20037;-75
2022/01/11 05:05:34;;;;;;;16.27;4.45;;;;;;;-2.19;92.28;101814.91;4899270;29;20043;-76
2022/01/11 05:08:02;;;;;;;17.90;5.03;;;;;;;-2.16;92.50;101817.38;4899361;29;20151;-75
2022/01/11 05:10:28;;;;;;;11.13;4.18;;;;;;;-2.11;92.27;101820.56;4899265;29;20032;-75
2022/01/11 05:12:53;;;;;;;15.07;4.30;;;;;;;-2.07;91.97;101823.03;4899220;29;20388;-75
2022/01/11 05:15:19;;;;;;;20.40;6.13;;;;;;;-2.00;92.08;101832.31;4882360;29;20119;-75
2022/01/11 05:17:45;;;;;;;14.85;4.95;;;;;;;-1.93;91.75;101820.44;4899405;29;20037;-75
2022/01/11 05:20:11;;;;;;;14.50;5.72;;;;;;;-1.88;91.59;101821.03;4898915;29;20096;-76
2022/01/11 05:22:38;;;;;;;15.90;6.28;;;;;;;-1.83;91.30;101827.75;4898780;29;20437;-76
2022/01/11 05:25:04;;;;;;;13.07;5.15;;;;;;;-1.77;91.01;101832.66;4899330;29;20044;-75
2022/01/11 05:27:30;;;;;;;19.88;5.75;;;;;;;-1.72;90.62;101828.88;4900360;29;20049;-76
2022/01/11 05:29:56;;;;;;;13.23;4.40;;;;;;;-1.78;90.40;101825.66;4899399;29;20039;-76
2022/01/11 05:32:21;;;;;;;;;;;;;;;-1.81;90.25;101827.66;4899076;29;20071;-75
2022/01/11 05:34:47;;;;;;;15.40;4.28;;;;;;;-1.86;90.11;101821.78;4898123;29;19967;-75
2022/01/11 05:37:12;;;;;;;14.73;4.45;;;;;;;-1.86;90.45;101821.78;4898150;29;20076;-76
2022/01/11 05:39:38;;;;;;;17.00;5.43;;;;;;;-1.81;90.85;101814.44;4881132;29;20071;-76
2022/01/11 05:42:08;;;;;;;13.70;5.15;;;;;;;-1.76;90.33;101826.44;4897940;29;20029;-76
2022/01/11 05:44:34;;;;;;;15.20;4.97;;;;;;;-1.74;89.88;101826.34;4898126;29;20040;-76
2022/01/11 05:47:00;;;;;;;18.30;5.10;;;;;;;-1.67;89.82;101830.31;4898117;29;20068;-76
2022/01/11 05:49:25;;;;;;;13.50;4.50;;;;;;;-1.60;89.90;101841.34;4881441;29;20115;-76
2022/01/11 05:51:51;;;;;;;11.00;4.30;;;;;;;-1.45;89.08;101835.16;4881572;29;20048;-76
2022/01/11 05:54:16;;;;;;;13.82;4.50;;;;;;;-1.42;89.03;101841.09;4881230;29;20107;-76
2022/01/11 05:56:42;;;;;;;12.70;5.35;;;;;;;-1.37;88.83;101832.88;4898198;29;20091;-76
2022/01/11 05:59:07;;;;;;;17.00;6.65;;;;;;;-1.34;88.48;101832.72;4897944;29;20068;-76
2022/01/11 06:01:33;;;;;;;14.55;4.50;;;;;;;-1.29;88.60;101837.72;4898171;29;20055;-76
2022/01/11 06:03:59;;;;;;;14.75;4.82;;;;;;;-1.23;88.09;101834.69;4898416;29;20040;-76
2022/01/11 06:06:24;;;;;;;12.80;3.78;;;;;;;-1.24;88.22;101835.63;4898134;29;20033;-76
2022/01/11 06:08:50;;;;;;;16.27;5.50;;;;;;;-1.16;87.43;101838.66;4898420;29;20039;-76
2022/01/11 06:11:15;;;;;;;13.93;4.93;;;;;;;-1.15;87.35;101843.84;4898362;29;20483;-76
2022/01/11 06:13:41;;;;;;;9.38;4.05;;;;;;;-0.93;87.35;101839.88;4898468;29;20044;-76
2022/01/11 06:16:07;;;;;;;9.30;3.45;;;;;;;-0.95;86.47;101839.13;4898815;29;20032;-76
2022/01/11 06:18:33;;;;;;;13.93;4.78;;;;;;;-0.68;84.97;101844.44;4898331;29;20577;-76
2022/01/11 06:20:58;;;;;;;17.30;5.93;;;;;;;-0.77;85.29;101838.81;4897673;29;20040;-76
2022/01/11 06:23:24;;;;;;;12.87;4.77;;;;;;;-0.87;85.51;101842.13;4898155;29;20067;-76
2022/01/11 06:25:49;;;;;;;11.38;4.55;;;;;;;-0.63;85.00;101835.28;4898388;29;20621;-76
2022/01/11 06:28:14;;;;;;;15.50;5.18;;;;;;;-0.73;84.41;101839.47;4898425;29;20036;-76
2022/01/11 06:30:40;;;;;;;12.50;4.03;;;;;;;-0.62;84.06;101841.41;4898085;29;20067;-76
2022/01/11 06:33:05;;;;;;;13.57;4.82;;;;;;;-0.78;83.91;101846.84;4881306;29;20037;-76
2022/01/11 06:35:30;;;;;;;14.85;4.63;;;;;;;-0.85;84.76;101848.16;4897711;29;20080;-76
2022/01/11 06:37:56;;;;;;;15.07;4.82;;;;;;;-0.92;84.99;101854.81;4897705;29;20032;-76
2022/01/11 06:40:22;;;;;;;12.18;4.32;;;;;;;-1.03;85.34;101852.81;4897624;29;20069;-76
2022/01/11 06:42:53;;;;;;;14.02;4.68;;;;;;;-1.13;85.29;101855.19;4897868;29;20043;-77
2022/01/11 06:45:21;;;;;;;16.42;5.65;;;;;;;-1.25;85.73;101850.63;4897882;29;20068;-77
2022/01/11 06:47:46;;;;;;;13.65;4.07;;;;;;;-1.21;85.92;101854.81;4897696;29;20101;-77
2022/01/11 06:50:12;;;;;;;12.20;4.78;;;;;;;-1.22;86.21;101863.69;4897970;29;20032;-77
2022/01/11 06:52:38;;;;;;;11.88;4.72;;;;;;;-1.20;85.74;101859.16;4901863;29;20123;-77
2022/01/11 06:55:07;;;;;;;13.73;4.75;;;;;;;-1.18;85.75;101859.06;4884908;29;20506;-76
2022/01/11 06:57:32;;;;;;;13.40;5.03;;;;;;;-1.20;85.66;101864.44;4901169;29;20028;-77
2022/01/11 06:59:58;;;;;;;12.05;4.97;;;;;;;-1.16;85.85;101868.59;4900940;29;20067;-77
2022/01/11 07:02:24;;;;;;;11.25;3.88;;;;;;;-1.25;85.85;101877.09;4900642;29;20448;-77
2022/01/11 07:04:49;;;;;;;20.10;6.20;;;;;;;-1.04;84.48;101869.63;4900419;29;20121;-76
2022/01/11 07:07:14;;;;;;;12.32;4.60;;;;;;;-1.21;85.22;101870.66;4883327;29;20121;-77
2022/01/11 07:09:40;;;;;;;12.70;4.13;;;;;;;-1.26;85.83;101866.63;4900521;29;20043;-76
2022/01/11 07:12:15;;;;;;;13.30;4.20;;;;;;;-1.11;88.02;101869.19;4900752;29;20491;-75
2022/01/11 07:14:40;;;;;;;14.23;4.22;;;;;;;-0.64;88.17;101881.22;4883564;29;20036;-76
2022/01/11 07:17:05;;;;;;;8.95;4.20;;;;;;;-0.54;87.84;101878.84;4900434;29;20349;-76
2022/01/11 07:19:31;;;;;;;16.55;5.30;;;;;;;-0.50;86.73;101883.84;4900839;29;20127;-76
2022/01/11 07:21:59;;;;;;;11.25;4.00;;;;;;;-0.33;85.27;101888.03;4900690;29;20064;-76
2022/01/11 07:24:26;;;;;;;16.75;5.03;;;;;;;-0.43;83.71;101890.44;4883478;29;20064;-76
2022/01/11 07:26:51;;;;;;;17.35;5.35;;;;;;;-0.52;84.37;101896.31;4900784;29;20047;-76
2022/01/11 07:29:16;;;;;;;12.88;5.15;;;;;;;-0.56;84.32;101897.50;4900568;29;20041;-76
2022/01/11 07:31:42;;;;;;;17.15;5.95;;;;;;;-0.44;85.26;101891.41;4900334;29;20040;-76
2022/01/11 07:34:09;;;;;;;14.00;6.13;;;;;;;-0.37;85.02;101897.16;4883301;29;20035;-76
2022/01/11 07:36:35;;;;;;;12.80;5.07;;;;;;;-0.33;84.29;101903.09;4900141;29;20047;-76
2022/01/11 07:39:01;;;;;;;13.88;4.53;;;;;;;-0.30;84.58;101902.91;4900066;29;20029;-76
2022/01/11 07:41:26;;;;;;;9.30;4.22;;;;;;;0.24;84.25;101912.53;4899924;29;20472;-76
2022/01/11 07:43:52;;;;;;;14.50;5.72;;;;;;;0.04;84.34;101915.66;4899819;29;20123;-75
2022/01/11 07:46:17;;;;;;;16.05;4.95;;;;;;;0.40;82.46;101908.84;4900757;29;20041;-76
2022/01/11 07:48:42;;;;;;;11.95;4.60;;;;;;;0.22;80.26;101914.44;4899998;29;20063;-76
2022/01/11 07:51:09;;;;;;;17.80;5.20;;;;;;;0.34;83.11;101916.28;4899920;29;20497;-76
2022/01/11 07:53:34;;;;;;;13.98;4.53;;;;;;;0.41;81.85;101911.41;4900731;29;20040;-76
2022/01/11 07:56:00;;;;;;;11.93;4.30;;;;;;;0.29;83.05;101923.69;4882897;29;20123;-76
2022/01/11 07:58:25;;;;;;;13.40;4.63;;;;;;;0.17;81.24;101921.88;4900103;29;20040;-76
2022/01/11 08:00:51;;;;;;;13.15;4.43;;;;;;;0.14;82.08;101922.06;4899814;29;20036;-76
2022/01/11 08:03:17;;;;;;;11.68;4.53;;;;;;;-0.02;81.76;101921.38;4899161;29;20047;-76
2022/01/11 08:05:43;;;;;;;14.50;4.50;;;;;;;-0.29;82.59;101923.13;4899510;29;20074;-76
2022/01/11 08:08:08;;;;;;;15.73;4.80;;;;;;;-0.25;82.73;101924.66;4899974;29;20068;-76
2022/01/11 08:10:34;;;;;;;12.77;4.75;;;;;;;-0.25;82.27;101927.28;4899636;29;20384;-76
2022/01/11 08:13:02;;;;;;;14.30;5.07;;;;;;;-0.36;83.21;101928.00;4899741;29;20028;-76
2022/01/11 08:15:28;;;;;;;12.07;4.53;;;;;;;-0.43;83.83;101926.66;4899801;29;20037;-76
2022/01/11 08:17:54;;;;;;;12.23;4.20;;;;;;;-0.44;84.12;101931.13;4899237;29;20372;-76
2022/01/11 08:20:19;;;;;;;13.95;5.05;;;;;;;-0.47;83.74;101930.44;4899371;29;20103;-77
2022/01/11 08:22:48;;;;;;;9.35;5.05;;;;;;;-0.47;84.35;101931.31;4899438;29;20424;-76
2022/01/11 08:25:14;;;;;;;16.88;4.65;;;;;;;-0.43;84.89;101938.13;4899442;29;20041;-76
2022/01/11 08:27:39;;;;;;;18.27;6.85;;;;;;;-0.38;85.17;101940.47;4899221;29;20350;-77
2022/01/11 08:30:06;;;;;;;14.38;5.18;;;;;;;-0.38;84.86;101948.44;4898901;29;20075;-77
2022/01/11 08:32:32;;;;;;;16.63;6.40;;;;;;;-0.36;84.84;101947.34;4898997;29;20036;-76
2022/01/11 08:34:57;;;;;;;16.65;5.35;;;;;;;-0.28;85.29;101951.31;4898758;29;20097;-76
2022/01/11 08:37:22;;;;;;;11.47;5.40;;;;;;;-0.26;85.07;101955.59;4898989;29;20063;-76
2022/01/11 08:39:48;;;;;;;16.38;5.47;;;;;;;-0.24;85.33;101961.63;4882098;29;20266;-76
2022/01/11 08:42:13;;;;;;;13.70;5.38;;;;;;;-0.20;85.22;101962.28;4899307;29;20075;-76
2022/01/11 08:44:49;;;;;;;12.68;5.00;;;;;;;-0.15;85.03;101965.47;4882619;29;20037;-76
2022/01/11 08:47:16;;;;;;;16.15;6.43;;;;;;;-0.10;85.16;101964.25;4899065;29;20036;-76
2022/01/11 08:49:42;;;;;;;14.57;5.97;;;;;;;-0.06;84.72;101960.47;4899195;29;20037;-76
2022/01/11 08:52:08;;;;;;;16.05;5.97;;;;;;;-0.03;84.54;101965.56;4899838;29;20032;-76
2022/01/11 08:54:33;;;;;;;;;;;;;;;0.04;84.88;101963.34;4899995;29;20052;-76
2022/01/11 08:57:00;;;;;;;13.00;4.75;;;;;;;0.23;83.80;101963.00;4899275;29;19973;-76
2022/01/11 08:59:26;;;;;;;19.65;5.53;;;;;;;0.29;83.62;101957.31;4898824;29;20040;-77
2022/01/11 09:01:54;;;;;;;;;;;;;;;0.36;84.28;101969.19;4899385;29;20040;-76
2022/01/11 09:04:21;;;;;;;13.10;4.70;;;;;;;0.35;83.51;101962.22;4899780;29;20027;-77
2022/01/11 09:06:47;;;;;;;14.63;6.05;;;;;;;0.42;83.86;101965.28;4899430;29;20081;-76
2022/01/11 09:09:12;;;;;;;13.68;4.63;;;;;;;0.51;83.00;101972.66;4899100;29;20033;-77
2022/01/11 09:11:38;;;;;;;15.35;5.40;;;;;;;0.60;83.08;101961.41;4898997;29;20040;-77
2022/01/11 09:14:03;;;;;;;11.60;4.70;;;;;;;0.68;82.93;101964.41;4897890;29;20503;-77
2022/01/11 09:16:28;;;;;;;11.60;4.75;;;;;;;0.87;81.97;101970.16;4899252;29;20261;-77
2022/01/11 09:18:54;;;;;;;8.57;4.23;;;;;;;0.89;79.58;101975.38;4900248;29;20033;-76
2022/01/11 09:21:20;;;;;;;14.88;4.60;;;;;;;0.95;79.41;101964.31;4900391;29;20717;-76
2022/01/11 09:23:50;;;;;;;9.20;3.55;;;;;;;1.04;78.67;101971.66;4900007;29;20032;-76
2022/01/11 09:26:15;;;;;;;18.58;5.82;;;;;;;1.16;79.15;101975.25;4900136;29;20047;-76
2022/01/11 09:28:41;;;;;;;12.27;5.20;;;;;;;1.21;77.49;101973.16;4899905;29;20040;-76
2022/01/11 09:31:07;;;;;;;8.10;3.60;;;;;;;1.31;77.43;101974.19;4882158;29;20042;-76
2022/01/11 09:33:33;;;;;;;;;;;;;;;1.45;76.90;101978.53;4899248;29;20265;-76
2022/01/11 09:35:59;;;;;;;10.00;3.60;;;;;;;1.53;77.07;101978.84;4898529;29;20396;-76
2022/01/11 09:38:24;;;;;;;;;;;;;;;1.58;75.62;101972.25;4898037;29;20484;-76
2022/01/11 09:40:52;;;;;;;7.72;3.13;;;;;;;1.63;75.24;101979.88;4898170;29;20010;-76
2022/01/11 09:43:21;;;;;;;12.18;3.90;;;;;;;1.73;75.82;101981.78;4897810;29;20043;-76
2022/01/11 09:45:51;;;;;;;7.53;3.00;;;;;;;1.72;75.52;101976.59;4897521;29;20096;-76
2022/01/11 09:48:25;;;;;;;16.50;3.90;;;;;;;1.85;76.08;101974.72;4897647;29;20037;-76
2022/01/11 09:50:51;;;;;;;16.40;4.68;;;;;;;2.05;76.44;101971.47;4897474;29;20115;-76
2022/01/11 09:53:17;;;;;;;;;;;;;;;2.10;75.68;101968.50;4898124;29;20046;-76
2022/01/11 09:55:44;;;;;;;10.55;3.83;;;;;;;2.23;75.62;101974.59;4897930;29;19915;-77
2022/01/11 09:58:10;;;;;;;11.10;3.80;;;;;;;2.32;75.14;101981.91;4881011;29;20119;-77
2022/01/11 10:00:36;;;;;;;9.90;3.50;;;;;;;2.48;74.59;101970.13;4897783;29;20064;-76
2022/01/11 10:03:04;;;;;;;10.10;3.78;;;;;;;2.49;74.52;101972.69;4897999;29;20076;-76
2022/01/11 10:05:30;;;;;;;12.05;4.35;;;;;;;2.64;73.18;101973.34;4897892;29;20044;-77
2022/01/11 10:07:56;;;;;;;;;;;;;;;2.69;73.64;101968.50;4897739;29;20611;-76
2022/01/11 10:10:24;;;;;;;10.88;3.97;;;;;;;2.96;72.55;101965.53;4897711;29;19935;-76
2022/01/11 10:12:52;;;;;;;8.30;2.85;;;;;;;2.99;72.14;101968.81;4898081;29;20445;-77
2022/01/11 10:15:29;;;;;;;5.90;2.00;;;;;;;3.03;72.54;101972.09;4881138;29;20051;-76
2022/01/11 10:17:54;;;;;;;12.60;2.97;;;;;;;3.11;72.96;101967.88;4897281;29;20505;-75
2022/01/11 10:20:22;;;;;;;6.93;2.50;;;;;;;3.18;72.66;101956.75;4897585;29;20036;-75
2022/01/11 10:22:51;;;;;;;7.40;2.42;;;;;;;3.18;72.90;101970.91;4897708;29;20465;-76
2022/01/11 10:25:17;;;;;;;5.47;2.50;;;;;;;3.35;72.83;101969.59;4898253;29;20476;-76
2022/01/11 10:27:43;;;;;;;6.38;2.53;;;;;;;3.48;73.29;101967.66;4885225;29;20093;-76
2022/01/11 10:30:13;;;;;;;6.55;2.80;;;;;;;3.43;72.87;101972.50;4884666;29;20498;-75
2022/01/11 10:32:41;;;;;;;9.15;3.10;;;;;;;3.54;73.02;101969.00;4901219;29;20379;-76
2022/01/11 10:35:14;;;;;;;7.07;2.83;;;;;;;3.60;73.54;101963.16;4901520;29;20460;-77
2022/01/11 10:37:47;;;;;;;6.38;2.63;;;;;;;3.68;72.90;101968.75;4901161;29;20029;-76
2022/01/11 10:40:20;;;;;;;6.57;2.85;;;;;;;3.66;73.74;101971.53;4902866;29;20036;-76
2022/01/11 10:42:58;;;;;;;7.57;2.78;;;;;;;3.84;73.39;101975.38;4884447;29;20028;-76
2022/01/11 10:45:28;;;;;;;6.05;3.08;;;;;;;3.85;72.85;101968.22;4901061;29;20037;-76
2022/01/11 10:47:59;;;;;;;8.55;3.17;;;;;;;4.02;73.20;101973.06;4901117;29;20052;-76
2022/01/11 10:50:35;;;;;;;8.75;3.05;;;;;;;4.05;73.44;101979.97;4901449;29;20036;-76
2022/01/11 10:53:03;;;;;;;8.40;3.22;;;;;;;4.02;73.31;101977.53;4901148;29;20495;-76
2022/01/11 10:55:32;;;;;;;8.77;3.30;;;;;;;4.04;73.53;101975.59;4900963;29;20039;-76
2022/01/11 10:58:01;;;;;;;7.78;3.10;;;;;;;4.13;73.19;101970.34;4883869;29;20173;-75
2022/01/11 11:00:31;;;;;;;9.52;2.92;;;;;;;4.23;73.09;101970.44;4900727;29;20110;-76
2022/01/11 11:03:12;;;;;;;9.90;3.70;;;;;;;4.33;73.90;101979.38;4900816;29;20121;-76
2022/01/11 11:05:52;;;;;;;7.78;3.00;;;;;;;4.42;73.03;101978.63;4900848;29;20167;-75
2022/01/11 11:08:20;;;;;;;9.35;3.92;;;;;;;4.49;73.06;101989.63;4883584;29;20063;-76
2022/01/11 11:11:07;;;;;;;11.55;3.92;;;;;;;4.44;72.84;101986.53;4900825;29;20105;-76
2022/01/11 11:13:38;;;;;;;9.05;4.15;;;;;;;4.41;72.87;101997.44;4882761;29;20056;-76
2022/01/11 11:16:28;;;;;;;9.80;4.05;;;;;;;4.47;72.92;101997.78;4900028;29;20473;-76
2022/01/11 11:18:57;;;;;;;11.05;3.53;;;;;;;4.55;72.36;101994.47;4900570;29;20032;-75
2022/01/11 11:21:26;;;;;;;12.20;3.92;;;;;;;4.57;72.76;101997.00;4900453;29;20539;-76
2022/01/11 11:24:13;;;;;;;12.23;4.05;;;;;;;4.53;72.58;101999.94;4900651;29;20111;-75
2022/01/11 11:26:42;;;;;;;9.25;3.92;;;;;;;4.59;72.91;101993.25;4900448;29;20129;-76
2022/01/11 11:29:10;;;;;;;12.15;4.20;;;;;;;4.59;73.19;101992.41;4900744;29;20051;-75